createdAt,value
2023-01-12T00:02:36.574Z,98892.23
2023-01-12T00:07:38.305Z,98893.86
2023-01-12T00:12:46.662Z,98899.82
2023-01-12T00:17:48.325Z,98905.20
2023-01-12T00:22:49.989Z,98909.58
2023-01-12T00:27:51.712Z,98911.15
2023-01-12T00:32:53.405Z,98914.95
2023-01-12T00:37:55.103Z,98923.63
2023-01-12T00:43:15.235Z,98922.48
2023-01-12T00:48:22.919Z,98922.96
2023-01-12T00:53:24.618Z,98924.33
2023-01-12T00:58:28.526Z,98932.91
2023-01-12T01:03:30.360Z,98935.34
2023-01-12T01:08:32.385Z,98935.23
2023-01-12T01:13:36.508Z,98944.65
2023-01-12T01:18:38.366Z,98943.81
2023-01-12T01:23:41.909Z,98945.71
2023-01-12T01:28:44.077Z,98943.53
2023-01-12T01:33:46.695Z,98945.27
2023-01-12T01:38:50.375Z,98945.06
2023-01-12T01:43:53.854Z,98947.14
2023-01-12T01:48:56.835Z,98947.06
2023-01-12T01:53:59.997Z,98950.48
2023-01-12T01:59:11.214Z,98950.70
2023-01-12T02:04:14.077Z,98956.25
2023-01-12T02:09:24.469Z,98957.61
2023-01-12T02:14:45.133Z,98961.92
2023-01-12T02:20:22.591Z,98961.83
2023-01-12T02:25:43.032Z,98957.96
2023-01-12T02:31:23.072Z,98962.58
2023-01-12T02:36:47.088Z,98959.39
2023-01-12T02:42:39.106Z,98961.45
2023-01-12T02:47:56.294Z,98969.48
2023-01-12T02:53:04.765Z,98968.27
2023-01-12T02:58:09.836Z,98961.57
2023-01-12T03:03:12.277Z,98958.67
2023-01-12T03:08:17.766Z,98969.63
2023-01-12T03:13:21.407Z,98969.39
2023-01-12T03:18:48.562Z,98972.69
2023-01-12T03:24:00.130Z,98970.64
2023-01-12T03:29:15.612Z,98971.52
2023-01-12T03:34:17.465Z,98965.96
2023-01-12T03:39:37.516Z,98980.35
2023-01-12T03:44:52.268Z,98978.21
2023-01-12T03:49:58.579Z,98972.24
2023-01-12T03:55:03.572Z,98971.40
2023-01-12T04:00:12.024Z,98974.84
2023-01-12T04:05:16.596Z,98974.49
2023-01-12T04:10:18.427Z,98977.68
2023-01-12T04:15:20.169Z,98953.74
2023-01-12T04:20:21.899Z,98980.44
2023-01-12T04:25:24.630Z,98991.36
2023-01-12T04:30:28.224Z,98998.66
2023-01-12T04:35:29.953Z,98994.48
2023-01-12T04:40:31.560Z,98991.64
2023-01-12T04:45:39.828Z,99001.91
2023-01-12T04:50:44.288Z,98999.30
2023-01-12T04:55:45.831Z,98993.03
2023-01-12T05:00:47.477Z,98996.76
2023-01-12T05:05:49.113Z,99007.45
2023-01-12T05:10:56.014Z,99005.56
2023-01-12T05:16:06.762Z,99001.80
2023-01-12T05:21:08.401Z,99001.39
2023-01-12T05:26:10.932Z,99000.08
2023-01-12T05:31:13.884Z,99007.56
2023-01-12T05:36:16.942Z,99013.77
2023-01-12T05:41:18.686Z,99007.95
2023-01-12T05:46:26.063Z,99008.55
2023-01-12T05:51:30.743Z,99014.01
2023-01-12T05:56:33.997Z,99020.79
2023-01-12T06:01:36.342Z,99025.80
2023-01-12T06:06:38.017Z,99026.10
2023-01-12T06:11:58.379Z,99022.78
2023-01-12T06:17:00.219Z,99021.54
2023-01-12T06:22:02.087Z,99025.60
2023-01-12T06:27:04.250Z,99021.45
2023-01-12T06:32:05.909Z,99025.66
2023-01-12T06:37:08.493Z,99033.43
2023-01-12T06:42:28.478Z,99031.18
2023-01-12T06:47:31.497Z,99035.98
2023-01-12T06:52:33.395Z,99044.21
2023-01-12T06:57:35.172Z,99047.46
2023-01-12T07:02:36.831Z,99045.27
2023-01-12T07:07:40.212Z,99032.73
2023-01-12T07:12:42.345Z,99036.91
2023-01-12T07:17:44.091Z,99044.87
2023-01-12T07:22:45.814Z,99043.81
2023-01-12T07:27:58.136Z,99035.91
2023-01-12T07:33:08.596Z,99034.52
2023-01-12T07:38:10.693Z,99031.81
2023-01-12T07:43:14.841Z,99042.54
2023-01-12T07:48:16.510Z,99035.59
2023-01-12T07:53:19.440Z,99038.10
2023-01-12T07:58:21.140Z,99053.25
2023-01-12T08:03:22.831Z,99046.25
2023-01-12T08:08:24.539Z,99043.66
2023-01-12T08:13:26.207Z,99039.56
2023-01-12T08:18:32.891Z,99036.76
2023-01-12T08:23:41.690Z,99032.33
2023-01-12T08:28:48.575Z,99040.98
2023-01-12T08:33:53.469Z,99043.05
2023-01-12T08:38:56.771Z,99045.20
2023-01-12T08:44:02.435Z,99042.96
2023-01-12T08:49:09.365Z,99063.56
2023-01-12T08:54:12.656Z,99063.04
2023-01-12T08:59:14.371Z,99062.27
2023-01-12T09:04:16.675Z,99067.27
2023-01-12T09:09:20.092Z,99060.59
2023-01-12T09:14:21.820Z,99061.63
2023-01-12T09:19:23.667Z,99053.61
2023-01-12T09:24:25.369Z,99031.30
2023-01-12T09:29:27.137Z,99035.30
2023-01-12T09:34:29.027Z,99029.80
2023-01-12T09:39:31.036Z,99026.27
2023-01-12T09:44:57.998Z,99026.75
2023-01-12T09:50:08.891Z,99026.07
2023-01-12T09:55:18.113Z,99026.44
2023-01-12T10:00:20.771Z,99022.39
2023-01-12T10:05:39.621Z,99021.06
2023-01-12T10:11:06.608Z,99010.49
2023-01-12T10:16:18.605Z,99007.30
2023-01-12T10:21:23.648Z,98995.50
2023-01-12T10:26:32.193Z,98990.61
2023-01-12T10:31:34.009Z,98995.47
2023-01-12T10:36:42.572Z,98990.58
2023-01-12T10:41:44.413Z,98959.87
2023-01-12T10:47:10.031Z,98980.98
2023-01-12T10:52:35.143Z,98984.83
2023-01-12T10:57:36.845Z,98977.63
2023-01-12T11:02:43.689Z,98967.09
2023-01-12T11:07:49.783Z,98960.05
2023-01-12T11:13:01.056Z,98954.86
2023-01-12T11:18:10.382Z,98951.12
2023-01-12T11:23:36.263Z,98935.23
2023-01-12T11:29:02.730Z,98924.76
2023-01-12T11:34:21.711Z,98926.71
2023-01-12T11:39:25.509Z,98915.95
2023-01-12T11:44:34.475Z,98902.61
2023-01-12T11:49:52.751Z,98903.92
2023-01-12T11:54:55.227Z,98900.23
2023-01-12T12:00:53.634Z,98893.98
2023-01-12T12:06:10.071Z,98881.33
2023-01-12T12:11:34.523Z,98877.48
2023-01-12T12:16:48.692Z,98880.77
2023-01-12T12:22:27.241Z,98870.41
2023-01-12T12:27:59.951Z,98873.39
2023-01-12T12:33:11.561Z,98885.38
2023-01-12T12:38:46.330Z,98886.62
2023-01-12T12:44:32.352Z,98874.87
2023-01-12T12:49:44.399Z,98868.58
2023-01-12T12:54:51.409Z,98864.80
2023-01-12T12:59:53.198Z,98868.80
2023-01-12T13:04:55.644Z,98862.02
2023-01-12T13:10:22.204Z,98852.79
2023-01-12T13:15:29.311Z,98842.21
2023-01-12T13:20:48.645Z,98842.17
2023-01-12T13:25:56.497Z,98840.48
2023-01-12T13:31:00.180Z,98838.52
2023-01-12T13:36:10.286Z,98829.54
2023-01-12T13:41:35.178Z,98824.73
2023-01-12T13:46:44.515Z,98820.14
2023-01-12T13:51:55.527Z,98824.15
2023-01-12T13:57:04.112Z,98825.78
2023-01-12T14:02:18.066Z,98827.85
2023-01-12T14:07:31.346Z,98831.23
2023-01-12T14:13:05.101Z,98829.96
2023-01-12T14:18:13.349Z,98826.30
2023-01-12T14:23:27.385Z,98810.94
2023-01-12T14:28:29.916Z,98818.62
2023-01-12T14:33:34.330Z,98817.70
2023-01-12T14:38:40.579Z,98823.59
2023-01-12T14:44:02.625Z,98814.92
2023-01-12T14:49:17.885Z,98820.84
2023-01-12T14:54:24.190Z,98821.10
2023-01-12T14:59:30.779Z,98813.88
2023-01-12T15:04:32.539Z,98809.64
2023-01-12T15:09:50.480Z,98803.15
2023-01-12T15:14:52.293Z,98796.50
2023-01-12T15:20:12.440Z,98799.47
2023-01-12T15:25:35.912Z,98804.22
2023-01-12T15:30:38.672Z,98805.24
2023-01-12T15:35:45.996Z,98802.88
2023-01-12T15:40:48.570Z,98798.95
2023-01-12T15:45:51.420Z,98799.24
2023-01-12T15:50:53.196Z,98797.75
2023-01-12T15:55:54.911Z,98801.08
2023-01-12T16:00:57.067Z,98792.16
2023-01-12T16:05:58.804Z,98793.16
2023-01-12T16:11:09.302Z,98787.96
2023-01-12T16:16:16.040Z,98779.65
2023-01-12T16:21:22.480Z,98783.11
2023-01-12T16:26:25.606Z,98782.79
2023-01-12T16:31:27.852Z,98783.60
2023-01-12T16:36:29.793Z,98780.70
2023-01-12T16:41:31.434Z,98777.26
2023-01-12T16:46:33.275Z,98766.24
2023-01-12T16:51:35.056Z,98763.83
2023-01-12T16:56:36.895Z,98759.38
2023-01-12T17:01:38.692Z,98757.67
2023-01-12T17:06:41.543Z,98746.35
2023-01-12T17:11:43.857Z,98738.42
2023-01-12T17:16:45.701Z,98742.67
2023-01-12T17:21:49.807Z,98744.53
2023-01-12T17:26:53.748Z,98732.52
2023-01-12T17:31:58.690Z,98733.02
2023-01-12T17:37:08.138Z,98730.95
2023-01-12T17:42:31.282Z,98736.05
2023-01-12T17:47:33.002Z,98714.73
2023-01-12T17:52:34.713Z,98739.14
2023-01-12T17:57:36.751Z,98743.02
2023-01-12T18:02:38.533Z,98744.90
2023-01-12T18:07:42.008Z,98734.67
2023-01-12T18:12:43.871Z,98730.63
2023-01-12T18:17:45.573Z,98722.45
2023-01-12T18:22:47.437Z,98719.90
2023-01-12T18:27:49.188Z,98711.52
2023-01-12T18:32:50.908Z,98714.31
2023-01-12T18:37:52.899Z,98708.85
2023-01-12T18:42:55.635Z,98698.77
2023-01-12T18:48:16.103Z,98701.22
2023-01-12T18:53:25.505Z,98707.67
2023-01-12T18:58:31.050Z,98714.56
2023-01-12T19:03:34.345Z,98706.79
2023-01-12T19:08:54.951Z,98700.03
2023-01-12T19:14:15.471Z,98700.92
2023-01-12T19:19:18.566Z,98700.14
2023-01-12T19:24:39.394Z,98702.13
2023-01-12T19:29:43.336Z,98696.63
2023-01-12T19:34:46.738Z,98686.38
2023-01-12T19:40:00.685Z,98688.59
2023-01-12T19:45:08.648Z,98694.50
2023-01-12T19:50:13.119Z,98691.48
2023-01-12T19:55:14.979Z,98692.02
2023-01-12T20:00:17.594Z,98686.60
2023-01-12T20:05:22.802Z,98684.11
2023-01-12T20:10:25.839Z,98689.13
2023-01-12T20:15:28.138Z,98687.39
2023-01-12T20:20:31.065Z,98693.35
2023-01-12T20:25:33.063Z,98689.51
2023-01-12T20:30:38.838Z,98684.41
2023-01-12T20:35:45.955Z,98685.23
2023-01-12T20:40:47.735Z,98688.91
2023-01-12T20:45:50.611Z,98685.18
2023-01-12T20:50:52.735Z,98685.83
2023-01-12T20:55:54.484Z,98682.39
2023-01-12T21:00:56.463Z,98678.92
2023-01-12T21:06:00.170Z,98678.63
2023-01-12T21:11:01.921Z,98674.86
2023-01-12T21:16:07.024Z,98681.55
2023-01-12T21:21:09.161Z,98678.86
2023-01-12T21:26:11.204Z,98634.14
2023-01-12T21:31:13.583Z,98676.19
2023-01-12T21:36:17.822Z,98669.88
2023-01-12T21:41:21.580Z,98669.45
2023-01-12T21:46:23.495Z,98671.05
2023-01-12T21:51:25.186Z,98669.84
2023-01-12T21:56:27.005Z,98662.86
2023-01-12T22:01:28.836Z,98658.54
2023-01-12T22:06:31.208Z,98667.34
2023-01-12T22:11:32.936Z,98665.99
2023-01-12T22:16:35.513Z,98662.23
2023-01-12T22:21:37.320Z,98657.23
2023-01-12T22:26:38.994Z,98656.92
2023-01-12T22:31:42.184Z,98652.79
2023-01-12T22:36:43.995Z,98656.40
2023-01-12T22:41:47.371Z,98651.36
2023-01-12T22:46:49.106Z,98633.05
2023-01-12T22:51:50.828Z,98644.20
2023-01-12T22:56:52.662Z,98643.05
2023-01-12T23:01:54.603Z,98643.46
2023-01-12T23:06:56.291Z,98638.99
2023-01-12T23:11:58.088Z,98640.01
2023-01-12T23:16:59.923Z,98630.16
2023-01-12T23:22:01.684Z,98623.28
2023-01-12T23:27:04.723Z,98625.27
2023-01-12T23:32:06.549Z,98623.36
2023-01-12T23:37:08.320Z,98630.30
2023-01-12T23:42:10.040Z,98624.35
2023-01-12T23:47:12.929Z,98627.37
2023-01-12T23:52:17.042Z,98620.47
2023-01-12T23:57:18.826Z,98614.91
